Terminal Aerodrome Forecast
Issued by NWS Twin Cities, MN

Home | Current Version | Previous Version | Text Only | Print | Product List | Glossary Off
Versions: 1 2 3 4 5 6 7 8 9 10 11 12 13 14 15 16 17 18 19 20 21 22

571
FTUS43 KMPX 201125
TAFSTC
TAF
KSTC 201125Z 2012/2112 01008KT 6SM -SHSN BR BKN018
      TEMPO 2012/2014 3SM -SN BR SCT018 OVC050
     FM201400 34010KT P6SM OVC020
     FM201800 31010KT P6SM OVC030
     FM202300 30011KT P6SM OVC040
     FM210400 29009KT P6SM SCT090=

USA.gov is the U.S. government's official web portal to all federal, state and local government web resources and services.